GOOY

Léopold Sédar Senghor International Airport

Dakar, Senegal
METAR GOOY 172200Z 28004KT 8000 SCT013 28/24 Q1014
Observed Flight Rules
Aug-17 @ 22:00 UTC (36 minutes ago) Marginal Visual Flight Rules
Wind Visibility Clouds
280° at 4 knots 7,998 meters
  • Scattered at 1,300' AGL
Temperatures Readings
Current 28°C / 82°F
Dewpoint 24°C / 75°F
Humidity 79%
Altimeter 29.94" Hg
Pressure 1014 hPa
Elevation 24
METAR GOOY 172200Z 28004KT 8000 SCT013 28/24 Q1014
Observed Flight Rules
Aug-17 @ 22:00 UTC
(36 minutes ago)
MVFR
Wind Visibility
280° at 4 knots 7,998 meters
Clouds
  • Scattered at 1,300' AGL
Temperature Dewpoint
28°C / 82°F 24°C / 75°F
Humidity Altimeter Pressure
79% 29.94" Hg 1014 hPa